createdAt,value
2023-05-19T00:02:09.435Z,13.74
2023-05-19T00:05:15.174Z,13.82
2023-05-19T00:08:18.442Z,13.89
2023-05-19T00:11:22.845Z,13.92
2023-05-19T00:14:25.484Z,13.88
2023-05-19T00:17:27.804Z,13.77
2023-05-19T00:20:30.414Z,13.87
2023-05-19T00:23:32.869Z,13.73
2023-05-19T00:26:35.111Z,13.75
2023-05-19T00:29:40.494Z,13.83
2023-05-19T00:32:42.864Z,13.83
2023-05-19T00:35:45.306Z,13.87
2023-05-19T00:38:47.597Z,13.90
2023-05-19T00:41:49.885Z,13.92
2023-05-19T00:44:52.413Z,13.94
2023-05-19T00:47:54.758Z,13.95
2023-05-19T00:51:04.817Z,13.99
2023-05-19T00:54:07.231Z,14.03
2023-05-19T00:57:09.520Z,14.02
2023-05-19T01:00:12.618Z,14.03
2023-05-19T01:03:15.181Z,14.03
2023-05-19T01:06:19.279Z,14.03
2023-05-19T01:09:22.652Z,14.03
2023-05-19T01:12:26.062Z,14.03
2023-05-19T01:15:28.871Z,14.01
2023-05-19T01:18:35.703Z,14.02
2023-05-19T01:22:13.210Z,14.01
2023-05-19T01:25:33.851Z,13.95
2023-05-19T01:28:51.029Z,13.91
2023-05-19T01:31:54.686Z,13.89
2023-05-19T01:34:57.269Z,13.88
2023-05-19T01:38:01.151Z,13.91
2023-05-19T01:41:04.464Z,13.86
2023-05-19T01:44:07.626Z,13.84
2023-05-19T01:47:10.893Z,13.87
2023-05-19T01:50:13.208Z,13.90
2023-05-19T01:53:15.487Z,13.92
2023-05-19T01:56:22.890Z,13.95
2023-05-19T01:59:41.790Z,13.95
2023-05-19T02:03:01.310Z,13.98
2023-05-19T02:06:10.277Z,13.98
2023-05-19T02:09:16.224Z,13.95
2023-05-19T02:12:44.727Z,13.98
2023-05-19T02:15:48.064Z,14.02
2023-05-19T02:18:52.072Z,14.03
2023-05-19T02:21:54.412Z,14.04
2023-05-19T02:24:57.545Z,14.00
2023-05-19T02:28:00.029Z,13.94
2023-05-19T02:31:08.791Z,13.89
2023-05-19T02:34:11.251Z,13.90
2023-05-19T02:37:17.001Z,13.86
2023-05-19T02:40:19.757Z,13.87
2023-05-19T02:43:22.069Z,13.88
2023-05-19T02:46:24.491Z,13.88
2023-05-19T02:49:27.670Z,13.89
2023-05-19T02:52:29.951Z,13.89
2023-05-19T02:55:32.215Z,13.90
2023-05-19T02:58:34.502Z,13.86
2023-05-19T03:01:37.801Z,13.82
2023-05-19T03:07:44.535Z,13.81
2023-05-19T03:10:47.183Z,13.82
2023-05-19T03:13:49.438Z,13.84
2023-05-19T03:16:52.299Z,13.84
2023-05-19T03:19:54.731Z,13.86
2023-05-19T03:22:58.480Z,13.90
2023-05-19T03:26:01.311Z,13.94
2023-05-19T03:29:03.911Z,13.86
2023-05-19T03:32:08.602Z,13.84
2023-05-19T03:35:11.593Z,13.84
2023-05-19T03:38:13.874Z,13.81
2023-05-19T03:41:23.238Z,13.82
2023-05-19T03:44:25.658Z,13.83
2023-05-19T03:47:28.121Z,13.86
2023-05-19T03:50:40.161Z,13.90
2023-05-19T03:53:57.180Z,13.92
2023-05-19T03:56:59.678Z,13.95
2023-05-19T04:00:02.882Z,13.96
2023-05-19T04:03:14.525Z,14.02
2023-05-19T04:06:17.615Z,14.05
2023-05-19T04:09:19.945Z,14.08
2023-05-19T04:12:22.352Z,14.11
2023-05-19T04:15:24.831Z,14.16
2023-05-19T04:18:28.946Z,14.22
2023-05-19T04:21:31.624Z,14.18
2023-05-19T04:24:33.914Z,14.17
2023-05-19T04:27:39.334Z,14.22
2023-05-19T04:30:42.634Z,14.32
2023-05-19T04:33:44.878Z,14.39
2023-05-19T04:36:48.071Z,14.48
2023-05-19T04:39:52.214Z,14.48
2023-05-19T04:42:56.050Z,14.58
2023-05-19T04:45:58.671Z,14.74
2023-05-19T04:49:01.463Z,14.96
2023-05-19T04:52:04.294Z,15.16
2023-05-19T04:55:07.967Z,15.32
2023-05-19T04:58:11.213Z,15.57
2023-05-19T05:01:16.477Z,15.87
2023-05-19T05:04:19.790Z,15.93
2023-05-19T05:07:22.805Z,16.06
2023-05-19T05:10:27.673Z,16.17
2023-05-19T05:13:30.237Z,16.24
2023-05-19T05:16:34.057Z,16.31
2023-05-19T05:19:36.636Z,16.37
2023-05-19T05:22:39.406Z,16.43
2023-05-19T05:25:44.243Z,16.20
2023-05-19T05:28:47.003Z,16.29
2023-05-19T05:31:50.327Z,16.34
2023-05-19T05:34:52.654Z,16.39
2023-05-19T05:37:55.892Z,16.51
2023-05-19T05:40:58.319Z,16.65
2023-05-19T05:44:04.507Z,16.92
2023-05-19T05:47:07.411Z,17.14
2023-05-19T05:50:10.159Z,17.25
2023-05-19T05:53:18.634Z,17.00
2023-05-19T05:56:22.298Z,16.75
2023-05-19T05:59:28.176Z,17.01
2023-05-19T06:02:30.797Z,17.23
2023-05-19T06:05:34.300Z,17.48
2023-05-19T06:08:37.487Z,17.74
2023-05-19T06:11:39.625Z,17.88
2023-05-19T06:14:42.483Z,17.99
2023-05-19T06:18:09.205Z,18.09
2023-05-19T06:21:13.335Z,18.25
2023-05-19T06:24:16.734Z,18.45
2023-05-19T06:27:19.053Z,18.66
2023-05-19T06:30:22.069Z,18.80
2023-05-19T06:33:41.674Z,19.12
2023-05-19T06:36:44.093Z,19.52
2023-05-19T06:39:47.292Z,19.77
2023-05-19T06:42:49.667Z,19.57
2023-05-19T06:45:58.059Z,19.35
2023-05-19T06:49:01.427Z,19.16
2023-05-19T06:52:07.322Z,19.17
2023-05-19T06:55:09.876Z,19.39
2023-05-19T06:58:14.043Z,19.29
2023-05-19T07:01:16.519Z,19.38
2023-05-19T07:04:24.572Z,19.48
2023-05-19T07:07:27.163Z,20.60
2023-05-19T07:10:31.805Z,20.55
2023-05-19T07:13:35.812Z,20.20
2023-05-19T07:16:38.250Z,20.23
2023-05-19T07:19:41.346Z,21.28
2023-05-19T07:22:43.929Z,22.02
2023-05-19T07:25:46.254Z,23.49
2023-05-19T07:28:48.523Z,24.40
2023-05-19T07:31:54.277Z,25.27
2023-05-19T07:34:56.703Z,25.52
2023-05-19T07:37:59.087Z,25.92
2023-05-19T07:41:02.412Z,25.80
2023-05-19T07:44:07.833Z,25.60
2023-05-19T07:47:10.402Z,26.67
2023-05-19T07:50:12.682Z,26.87
2023-05-19T07:53:15.507Z,27.50
2023-05-19T07:56:17.842Z,27.03
2023-05-19T07:59:20.111Z,26.68
2023-05-19T08:02:22.461Z,26.92
2023-05-19T08:05:26.071Z,26.73
2023-05-19T08:08:28.367Z,26.88
2023-05-19T08:11:30.833Z,25.33
2023-05-19T08:14:34.890Z,24.30
2023-05-19T08:17:37.656Z,25.42
2023-05-19T08:20:39.941Z,24.03
2023-05-19T08:23:42.241Z,23.60
2023-05-19T08:26:44.630Z,23.07
2023-05-19T08:29:46.949Z,23.08
2023-05-19T08:32:49.288Z,23.50
2023-05-19T08:35:51.758Z,23.30
2023-05-19T08:38:54.031Z,22.88
2023-05-19T08:41:56.506Z,22.01
2023-05-19T08:45:00.011Z,21.72
2023-05-19T08:48:03.390Z,21.64
2023-05-19T08:51:33.255Z,21.63
2023-05-19T08:54:44.896Z,21.71
2023-05-19T08:57:48.937Z,21.77
2023-05-19T09:00:52.185Z,21.63
2023-05-19T09:03:55.055Z,21.59
2023-05-19T09:06:58.866Z,21.51
2023-05-19T09:10:02.084Z,21.47
2023-05-19T09:13:05.211Z,21.47
2023-05-19T09:16:08.376Z,21.39
2023-05-19T09:19:16.072Z,21.34
2023-05-19T09:22:21.326Z,21.34
2023-05-19T09:25:24.026Z,21.37
2023-05-19T09:28:30.608Z,21.41
2023-05-19T09:31:33.763Z,21.48
2023-05-19T09:34:41.740Z,21.54
2023-05-19T09:37:44.125Z,21.56
2023-05-19T09:40:48.998Z,21.52
2023-05-19T09:43:56.249Z,21.45
2023-05-19T09:46:58.864Z,21.51
2023-05-19T09:50:01.145Z,21.54
2023-05-19T09:53:04.110Z,21.52
2023-05-19T09:56:08.764Z,21.46
2023-05-19T09:59:12.468Z,21.52
2023-05-19T10:02:17.821Z,21.44
2023-05-19T10:05:21.139Z,21.45
2023-05-19T10:08:26.457Z,21.42
2023-05-19T10:11:30.233Z,21.41
2023-05-19T10:14:32.507Z,21.45
2023-05-19T10:17:36.166Z,21.44
2023-05-19T10:20:39.893Z,21.44
2023-05-19T10:23:42.197Z,21.51
2023-05-19T10:26:46.464Z,21.45
2023-05-19T10:29:50.262Z,21.45
2023-05-19T10:32:54.730Z,21.49
2023-05-19T10:36:12.499Z,21.49
2023-05-19T10:39:19.350Z,21.33
2023-05-19T10:42:41.068Z,21.37
2023-05-19T10:45:52.015Z,21.42
2023-05-19T10:48:54.648Z,21.40
2023-05-19T10:51:57.269Z,21.41
2023-05-19T10:55:01.208Z,21.36
2023-05-19T10:58:03.844Z,21.23
2023-05-19T11:01:30.111Z,21.22
2023-05-19T11:04:54.193Z,21.16
2023-05-19T11:08:02.229Z,21.13
2023-05-19T11:11:17.648Z,21.13
2023-05-19T11:14:19.924Z,21.13
2023-05-19T11:17:23.755Z,21.21
2023-05-19T11:20:27.027Z,21.18
2023-05-19T11:23:35.456Z,21.14
2023-05-19T11:26:44.152Z,21.17
2023-05-19T11:29:48.402Z,21.21
2023-05-19T11:32:50.876Z,21.16
2023-05-19T11:35:57.606Z,21.19
2023-05-19T11:39:00.181Z,21.24
2023-05-19T11:42:02.576Z,21.23
2023-05-19T11:45:06.340Z,21.30
2023-05-19T11:48:12.851Z,21.36
2023-05-19T11:51:16.473Z,21.36
2023-05-19T11:54:19.291Z,21.33
2023-05-19T11:57:22.544Z,21.28
2023-05-19T12:00:33.569Z,21.31
2023-05-19T12:03:36.027Z,21.28
2023-05-19T12:06:38.375Z,21.32
2023-05-19T12:09:40.613Z,21.34
2023-05-19T12:12:45.180Z,21.34
2023-05-19T12:15:47.477Z,21.35
2023-05-19T12:18:49.926Z,21.37
2023-05-19T12:21:53.098Z,21.36
2023-05-19T12:24:56.185Z,21.28
2023-05-19T12:27:59.686Z,21.26
2023-05-19T12:31:02.806Z,21.26
2023-05-19T12:34:05.099Z,21.28
2023-05-19T12:37:07.448Z,21.27
2023-05-19T12:40:10.339Z,21.22
2023-05-19T12:43:22.617Z,21.23
2023-05-19T12:46:25.073Z,21.29
2023-05-19T12:49:27.431Z,21.27
2023-05-19T12:52:31.121Z,21.33
2023-05-19T12:55:41.772Z,21.38
2023-05-19T12:58:44.217Z,21.38
2023-05-19T13:01:46.544Z,21.41
2023-05-19T13:04:48.969Z,21.43
2023-05-19T13:08:05.357Z,21.52
2023-05-19T13:11:07.654Z,21.56
2023-05-19T13:14:10.505Z,21.59
2023-05-19T13:17:12.760Z,21.58
2023-05-19T13:20:15.189Z,21.57
2023-05-19T13:23:17.571Z,21.55
2023-05-19T13:26:19.976Z,21.57
2023-05-19T13:29:22.448Z,21.61
2023-05-19T13:32:24.934Z,21.60
2023-05-19T13:35:27.878Z,21.65
2023-05-19T13:38:30.860Z,21.72
2023-05-19T13:41:33.192Z,21.70
2023-05-19T13:44:35.555Z,21.67
2023-05-19T13:47:38.690Z,21.61
2023-05-19T13:50:41.003Z,21.61
2023-05-19T13:53:43.350Z,21.60
2023-05-19T13:56:49.020Z,21.60
2023-05-19T14:00:01.562Z,21.56
2023-05-19T14:03:16.274Z,21.57
2023-05-19T14:06:18.676Z,21.60
2023-05-19T14:09:21.118Z,21.60
2023-05-19T14:12:30.640Z,21.58
2023-05-19T14:15:39.183Z,21.67
2023-05-19T14:18:41.551Z,21.68
2023-05-19T14:21:43.943Z,21.74
2023-05-19T14:24:46.223Z,21.77
2023-05-19T14:27:48.590Z,21.81
2023-05-19T14:30:51.129Z,21.81
2023-05-19T14:33:53.499Z,21.79
2023-05-19T14:36:56.153Z,21.67
2023-05-19T14:39:58.611Z,21.61
2023-05-19T14:43:00.900Z,21.55
2023-05-19T14:46:03.213Z,21.64
2023-05-19T14:49:06.610Z,21.68
2023-05-19T14:52:08.996Z,21.70
2023-05-19T14:55:11.264Z,21.69
2023-05-19T14:58:27.385Z,21.70
2023-05-19T15:01:31.166Z,21.68
2023-05-19T15:04:33.469Z,21.70
2023-05-19T15:07:36.137Z,21.72
2023-05-19T15:10:38.385Z,21.75
2023-05-19T15:13:40.615Z,21.79
2023-05-19T15:16:43.065Z,21.82
2023-05-19T15:19:45.497Z,21.85
2023-05-19T15:22:47.742Z,21.90
2023-05-19T15:25:50.024Z,21.94
2023-05-19T15:28:52.683Z,21.95
2023-05-19T15:31:56.053Z,21.95
2023-05-19T15:34:58.382Z,21.97
2023-05-19T15:38:06.024Z,22.02
2023-05-19T15:41:08.901Z,22.04
2023-05-19T15:44:11.207Z,22.05
2023-05-19T15:47:13.817Z,22.07
2023-05-19T15:50:16.871Z,22.08
2023-05-19T15:53:20.232Z,22.08
2023-05-19T15:56:22.601Z,22.05
2023-05-19T15:59:25.385Z,22.07
2023-05-19T16:02:27.790Z,22.04
2023-05-19T16:05:30.182Z,22.04
2023-05-19T16:08:32.530Z,22.03
2023-05-19T16:11:34.899Z,21.94
2023-05-19T16:14:37.844Z,21.82
2023-05-19T16:17:40.296Z,21.87
2023-05-19T16:23:46.286Z,21.92
2023-05-19T16:26:48.720Z,21.96
2023-05-19T16:29:51.168Z,21.87
2023-05-19T16:32:54.538Z,21.78
2023-05-19T16:35:58.335Z,21.65
2023-05-19T16:39:00.919Z,21.51
2023-05-19T16:42:04.666Z,21.50
2023-05-19T16:45:07.570Z,21.35
2023-05-19T16:48:10.043Z,21.37
2023-05-19T16:51:12.669Z,21.38
2023-05-19T16:54:14.892Z,21.26
2023-05-19T16:57:17.075Z,21.29
2023-05-19T17:00:22.408Z,21.15
2023-05-19T17:03:24.844Z,21.16
2023-05-19T17:06:27.385Z,21.13
2023-05-19T17:09:29.669Z,21.04
2023-05-19T17:12:31.952Z,21.02
2023-05-19T17:15:34.873Z,21.04
2023-05-19T17:18:37.456Z,21.01
2023-05-19T17:21:40.499Z,20.93
2023-05-19T17:24:42.832Z,20.99
2023-05-19T17:27:45.134Z,20.90
2023-05-19T17:30:47.772Z,20.96
2023-05-19T17:33:50.481Z,20.89
2023-05-19T17:36:53.524Z,20.76
2023-05-19T17:39:55.847Z,20.74
2023-05-19T17:42:58.684Z,20.76
2023-05-19T17:46:01.474Z,20.76
2023-05-19T17:49:03.649Z,20.77
2023-05-19T17:52:06.595Z,20.79
2023-05-19T17:55:11.922Z,20.79
2023-05-19T17:58:14.396Z,20.78
2023-05-19T18:01:24.192Z,20.76
2023-05-19T18:04:27.833Z,20.72
2023-05-19T18:07:31.548Z,20.72
2023-05-19T18:10:36.959Z,20.69
2023-05-19T18:13:39.316Z,20.65
2023-05-19T18:16:41.831Z,20.63
2023-05-19T18:19:44.185Z,20.60
2023-05-19T18:22:47.030Z,20.58
2023-05-19T18:25:51.725Z,20.54
2023-05-19T18:28:53.988Z,20.51
2023-05-19T18:31:56.284Z,20.50
2023-05-19T18:34:58.625Z,20.44
2023-05-19T18:38:00.985Z,20.39
2023-05-19T18:41:03.400Z,20.34
2023-05-19T18:44:07.987Z,20.29
2023-05-19T18:47:11.049Z,20.15
2023-05-19T18:50:13.382Z,20.04
2023-05-19T18:53:15.926Z,19.93
2023-05-19T18:56:25.181Z,19.88
2023-05-19T18:59:27.661Z,19.85
2023-05-19T19:02:29.995Z,19.81
2023-05-19T19:05:32.349Z,19.79
2023-05-19T19:08:34.595Z,19.74
2023-05-19T19:11:37.007Z,19.70
2023-05-19T19:14:39.302Z,19.67
2023-05-19T19:17:42.069Z,19.65
2023-05-19T19:20:44.568Z,19.59
2023-05-19T19:23:46.832Z,19.52
2023-05-19T19:26:49.104Z,19.46
2023-05-19T19:29:51.334Z,19.44
2023-05-19T19:32:54.865Z,19.40
2023-05-19T19:35:57.311Z,19.37
2023-05-19T19:38:59.691Z,19.29
2023-05-19T19:42:02.082Z,19.25
2023-05-19T19:45:05.785Z,19.21
2023-05-19T19:48:08.184Z,19.17
2023-05-19T19:51:10.652Z,19.13
2023-05-19T19:54:12.913Z,19.10
2023-05-19T19:57:17.313Z,19.05
2023-05-19T20:00:19.779Z,19.03
2023-05-19T20:03:22.283Z,19.02
2023-05-19T20:06:24.757Z,19.03
2023-05-19T20:09:27.108Z,19.02
2023-05-19T20:12:30.202Z,18.98
2023-05-19T20:15:32.462Z,18.95
2023-05-19T20:18:34.718Z,18.94
2023-05-19T20:21:37.058Z,18.92
2023-05-19T20:24:39.484Z,18.93
2023-05-19T20:27:41.738Z,18.95
2023-05-19T20:30:44.172Z,18.97
2023-05-19T20:33:46.445Z,18.96
2023-05-19T20:36:48.720Z,18.94
2023-05-19T20:39:51.012Z,18.92
2023-05-19T20:42:53.374Z,18.93
2023-05-19T20:45:55.799Z,18.93
2023-05-19T20:48:58.173Z,18.93
2023-05-19T20:52:00.546Z,18.91
2023-05-19T20:55:03.251Z,18.89
2023-05-19T20:58:05.612Z,18.90
2023-05-19T21:01:07.943Z,18.94
2023-05-19T21:04:10.360Z,18.94
2023-05-19T21:07:12.866Z,18.96
2023-05-19T21:10:15.352Z,18.96
2023-05-19T21:13:18.130Z,18.97
2023-05-19T21:16:20.608Z,18.97
2023-05-19T21:19:23.407Z,18.95
2023-05-19T21:22:26.754Z,18.95
2023-05-19T21:25:29.069Z,18.93
2023-05-19T21:28:31.469Z,18.93
2023-05-19T21:31:35.310Z,18.91
2023-05-19T21:34:38.926Z,18.89
2023-05-19T21:37:41.427Z,18.84
2023-05-19T21:40:47.112Z,18.81
2023-05-19T21:43:49.469Z,18.76
2023-05-19T21:46:51.972Z,18.76
2023-05-19T21:49:54.427Z,18.73
2023-05-19T21:52:56.766Z,18.68
2023-05-19T21:55:59.641Z,18.62
2023-05-19T21:59:01.929Z,18.57
2023-05-19T22:02:04.959Z,18.54
2023-05-19T22:05:07.663Z,18.51
2023-05-19T22:08:09.991Z,18.49
2023-05-19T22:11:14.863Z,18.46
2023-05-19T22:14:17.623Z,18.39
2023-05-19T22:17:19.818Z,18.33
2023-05-19T22:20:22.017Z,18.29
2023-05-19T22:23:24.377Z,18.26
2023-05-19T22:26:27.270Z,18.21
2023-05-19T22:29:29.402Z,18.15
2023-05-19T22:32:32.816Z,18.06
2023-05-19T22:35:37.735Z,18.04
2023-05-19T22:38:40.070Z,18.08
2023-05-19T22:41:42.523Z,18.12
2023-05-19T22:44:45.913Z,18.18
2023-05-19T22:47:48.458Z,18.17
2023-05-19T22:50:50.984Z,18.18
2023-05-19T22:53:53.303Z,18.18
2023-05-19T22:56:55.658Z,18.19
2023-05-19T22:59:57.901Z,18.18
2023-05-19T23:03:00.246Z,18.15
2023-05-19T23:06:02.610Z,18.16
2023-05-19T23:09:05.047Z,18.16
2023-05-19T23:12:07.399Z,18.11
2023-05-19T23:15:10.985Z,18.08
2023-05-19T23:18:15.068Z,18.02
2023-05-19T23:21:17.526Z,17.99
2023-05-19T23:24:20.159Z,18.00
2023-05-19T23:27:22.784Z,17.99
2023-05-19T23:30:25.132Z,17.99
2023-05-19T23:33:27.424Z,17.94
2023-05-19T23:36:29.691Z,17.90
2023-05-19T23:39:31.964Z,17.87
2023-05-19T23:42:34.635Z,17.86
2023-05-19T23:45:36.904Z,17.86
2023-05-19T23:48:39.457Z,17.87
2023-05-19T23:51:41.747Z,17.88
2023-05-19T23:54:44.065Z,17.87
2023-05-19T23:57:46.295Z,17.88
